createdAt,value
2023-03-05T00:00:11.408Z,1009.94
2023-03-05T00:01:11.360Z,1009.88
2023-03-05T00:02:11.412Z,1009.88
2023-03-05T00:03:11.391Z,1009.87
2023-03-05T00:04:11.341Z,1009.84
2023-03-05T00:05:11.320Z,1009.89
2023-03-05T00:06:11.310Z,1009.87
2023-03-05T00:07:11.310Z,1009.88
2023-03-05T00:08:11.285Z,1009.87
2023-03-05T00:09:11.291Z,1009.84
2023-03-05T00:10:11.286Z,1009.81
2023-03-05T00:11:11.256Z,1009.83
2023-03-05T00:12:11.237Z,1009.80
2023-03-05T00:13:11.226Z,1009.80
2023-03-05T00:14:11.215Z,1009.86
2023-03-05T00:15:11.212Z,1009.81
2023-03-05T00:16:11.281Z,1009.79
2023-03-05T00:17:11.180Z,1009.78
2023-03-05T00:18:11.180Z,1009.72
2023-03-05T00:19:11.169Z,1009.71
2023-03-05T00:20:11.163Z,1009.68
2023-03-05T00:21:11.140Z,1009.72
2023-03-05T00:22:11.125Z,1009.66
2023-03-05T00:23:11.138Z,1009.69
2023-03-05T00:24:11.157Z,1009.70
2023-03-05T00:25:11.101Z,1009.64
2023-03-05T00:26:11.087Z,1009.68
2023-03-05T00:27:11.082Z,1009.64
2023-03-05T00:28:11.063Z,1009.54
2023-03-05T00:29:11.070Z,1009.62
2023-03-05T00:30:11.057Z,1009.61
2023-03-05T00:31:11.113Z,1009.52
2023-03-05T00:32:11.079Z,1009.51
2023-03-05T00:33:11.015Z,1009.52
2023-03-05T00:34:11.005Z,1009.45
2023-03-05T00:35:11.010Z,1009.46
2023-03-05T00:36:10.978Z,1009.48
2023-03-05T00:37:10.973Z,1009.44
2023-03-05T00:38:10.960Z,1009.44
2023-03-05T00:39:10.966Z,1009.43
2023-03-05T00:40:11.015Z,1009.40
2023-03-05T00:41:10.926Z,1009.44
2023-03-05T00:42:10.918Z,1009.41
2023-03-05T00:43:10.902Z,1009.35
2023-03-05T00:44:10.896Z,1009.34
2023-03-05T00:45:10.894Z,1009.31
2023-03-05T00:46:10.896Z,1009.30
2023-03-05T00:47:10.860Z,1009.32
2023-03-05T00:48:10.849Z,1009.25
2023-03-05T00:49:10.853Z,1009.24
2023-03-05T00:50:10.845Z,1009.20
2023-03-05T00:51:10.816Z,1009.21
2023-03-05T00:52:10.805Z,1009.18
2023-03-05T00:53:10.797Z,1009.17
2023-03-05T00:54:10.791Z,1009.14
2023-03-05T00:55:10.806Z,1009.12
2023-03-05T00:56:10.761Z,1009.13
2023-03-05T00:57:10.756Z,1009.15
2023-03-05T00:58:10.754Z,1009.09
2023-03-05T00:59:10.729Z,1009.13
2023-03-05T01:00:10.747Z,1009.07
2023-03-05T01:01:10.730Z,1009.09
2023-03-05T01:02:10.695Z,1009.07
2023-03-05T01:03:10.680Z,1009.07
2023-03-05T01:04:10.673Z,1009.03
2023-03-05T01:05:10.714Z,1009.03
2023-03-05T01:06:10.645Z,1009.05
2023-03-05T01:07:10.630Z,1008.97
2023-03-05T01:08:10.625Z,1009.03
2023-03-05T01:09:10.612Z,1009.00
2023-03-05T01:10:10.617Z,1008.98
2023-03-05T01:11:10.607Z,1009.00
2023-03-05T01:12:18.499Z,1008.96
2023-03-05T01:13:10.560Z,1008.95
2023-03-05T01:14:10.587Z,1008.91
2023-03-05T01:15:10.552Z,1008.92
2023-03-05T01:16:10.583Z,1008.91
2023-03-05T01:17:10.522Z,1008.88
2023-03-05T01:18:10.506Z,1008.91
2023-03-05T01:19:10.500Z,1008.94
2023-03-05T01:20:10.493Z,1008.89
2023-03-05T01:21:10.475Z,1008.87
2023-03-05T01:22:10.462Z,1008.89
2023-03-05T01:23:10.447Z,1008.90
2023-03-05T01:24:10.432Z,1008.86
2023-03-05T01:25:10.443Z,1008.85
2023-03-05T01:26:10.409Z,1008.88
2023-03-05T01:27:10.423Z,1008.88
2023-03-05T01:28:10.389Z,1008.86
2023-03-05T01:29:10.376Z,1008.85
2023-03-05T01:30:10.415Z,1008.84
2023-03-05T01:31:10.373Z,1008.85
2023-03-05T01:32:10.379Z,1008.84
2023-03-05T01:33:10.335Z,1008.83
2023-03-05T01:34:10.321Z,1008.88
2023-03-05T01:35:10.344Z,1008.77
2023-03-05T01:36:10.305Z,1008.76
2023-03-05T01:37:10.298Z,1008.74
2023-03-05T01:38:10.284Z,1008.76
2023-03-05T01:39:10.274Z,1008.75
2023-03-05T01:40:10.288Z,1008.73
2023-03-05T01:41:10.253Z,1008.71
2023-03-05T01:42:10.252Z,1008.70
2023-03-05T01:43:10.254Z,1008.71
2023-03-05T01:44:10.221Z,1008.71
2023-03-05T01:45:10.281Z,1008.71
2023-03-05T01:46:10.230Z,1008.67
2023-03-05T01:47:10.182Z,1008.77
2023-03-05T01:48:10.180Z,1008.71
2023-03-05T01:49:10.163Z,1008.71
2023-03-05T01:50:10.184Z,1008.70
2023-03-05T01:51:10.141Z,1008.65
2023-03-05T01:52:10.139Z,1008.66
2023-03-05T01:53:10.118Z,1008.66
2023-03-05T01:54:10.130Z,1008.65
2023-03-05T01:55:10.115Z,1008.72
2023-03-05T01:56:10.086Z,1008.66
2023-03-05T01:57:10.086Z,1008.66
2023-03-05T01:58:10.064Z,1008.64
2023-03-05T01:59:10.107Z,1008.61
2023-03-05T02:00:10.064Z,1008.60
2023-03-05T02:01:10.072Z,1008.64
2023-03-05T02:02:10.018Z,1008.59
2023-03-05T02:03:10.011Z,1008.62
2023-03-05T02:04:10.104Z,1008.59
2023-03-05T02:05:10.010Z,1008.60
2023-03-05T02:06:09.987Z,1008.58
2023-03-05T02:07:09.964Z,1008.58
2023-03-05T02:08:09.963Z,1008.64
2023-03-05T02:09:09.942Z,1008.61
2023-03-05T02:10:09.957Z,1008.57
2023-03-05T02:11:09.929Z,1008.51
2023-03-05T02:12:09.914Z,1008.56
2023-03-05T02:13:09.900Z,1008.54
2023-03-05T02:14:10.347Z,1008.58
2023-03-05T02:15:09.921Z,1008.56
2023-03-05T02:16:09.900Z,1008.53
2023-03-05T02:17:09.860Z,1008.46
2023-03-05T02:18:09.863Z,1008.54
2023-03-05T02:19:09.836Z,1008.51
2023-03-05T02:20:09.858Z,1008.49
2023-03-05T02:21:09.828Z,1008.46
2023-03-05T02:22:09.815Z,1008.48
2023-03-05T02:23:09.792Z,1008.51
2023-03-05T02:24:09.793Z,1008.46
2023-03-05T02:25:09.790Z,1008.42
2023-03-05T02:26:09.773Z,1008.44
2023-03-05T02:27:09.759Z,1008.43
2023-03-05T02:28:09.750Z,1008.36
2023-03-05T02:29:09.735Z,1008.40
2023-03-05T02:30:09.746Z,1008.42
2023-03-05T02:31:09.731Z,1008.39
2023-03-05T02:32:09.872Z,1008.43
2023-03-05T02:33:09.696Z,1008.40
2023-03-05T02:34:09.682Z,1008.35
2023-03-05T02:35:09.682Z,1008.38
2023-03-05T02:36:09.657Z,1008.36
2023-03-05T02:37:09.647Z,1008.35
2023-03-05T02:38:09.637Z,1008.28
2023-03-05T02:39:09.641Z,1008.32
2023-03-05T02:40:09.639Z,1008.30
2023-03-05T02:41:09.612Z,1008.29
2023-03-05T02:42:09.594Z,1008.28
2023-03-05T02:43:09.585Z,1008.21
2023-03-05T02:44:09.573Z,1008.21
2023-03-05T02:45:09.560Z,1008.26
2023-03-05T02:46:09.670Z,1008.23
2023-03-05T02:47:09.566Z,1008.21
2023-03-05T02:48:09.541Z,1008.23
2023-03-05T02:49:09.520Z,1008.19
2023-03-05T02:50:09.518Z,1008.16
2023-03-05T02:51:09.524Z,1008.18
2023-03-05T02:52:09.528Z,1008.12
2023-03-05T02:53:09.474Z,1008.11
2023-03-05T02:54:09.510Z,1008.13
2023-03-05T02:55:09.478Z,1008.13
2023-03-05T02:56:09.469Z,1008.08
2023-03-05T02:57:09.438Z,1008.08
2023-03-05T02:58:09.433Z,1008.07
2023-03-05T02:59:09.456Z,1008.10
2023-03-05T03:00:09.497Z,1008.10
2023-03-05T03:01:09.487Z,1008.11
2023-03-05T03:02:09.380Z,1008.01
2023-03-05T03:03:09.483Z,1008.05
2023-03-05T03:04:09.362Z,1008.01
2023-03-05T03:05:09.350Z,1008.07
2023-03-05T03:06:09.349Z,1008.05
2023-03-05T03:07:09.328Z,1008.03
2023-03-05T03:08:09.315Z,1007.99
2023-03-05T03:09:09.302Z,1007.99
2023-03-05T03:10:09.330Z,1007.94
2023-03-05T03:11:09.334Z,1007.96
2023-03-05T03:12:09.270Z,1007.95
2023-03-05T03:13:09.262Z,1007.94
2023-03-05T03:14:09.253Z,1007.95
2023-03-05T03:15:09.240Z,1007.96
2023-03-05T03:16:09.263Z,1007.91
2023-03-05T03:17:09.217Z,1007.89
2023-03-05T03:18:09.207Z,1007.87
2023-03-05T03:19:09.218Z,1007.89
2023-03-05T03:20:09.206Z,1007.92
2023-03-05T03:21:09.192Z,1007.93
2023-03-05T03:22:09.181Z,1007.91
2023-03-05T03:23:09.154Z,1007.87
2023-03-05T03:24:09.147Z,1007.88
2023-03-05T03:25:09.135Z,1007.85
2023-03-05T03:26:09.139Z,1007.81
2023-03-05T03:27:09.119Z,1007.86
2023-03-05T03:28:09.105Z,1007.76
2023-03-05T03:29:09.108Z,1007.78
2023-03-05T03:30:09.091Z,1007.76
2023-03-05T03:31:09.149Z,1007.76
2023-03-05T03:32:09.149Z,1007.75
2023-03-05T03:33:09.056Z,1007.72
2023-03-05T03:34:09.046Z,1007.68
2023-03-05T03:35:09.065Z,1007.65
2023-03-05T03:36:09.038Z,1007.71
2023-03-05T03:37:09.021Z,1007.67
2023-03-05T03:38:09.000Z,1007.69
2023-03-05T03:39:08.997Z,1007.65
2023-03-05T03:40:08.972Z,1007.68
2023-03-05T03:41:08.995Z,1007.73
2023-03-05T03:42:08.965Z,1007.64
2023-03-05T03:43:08.948Z,1007.67
2023-03-05T03:44:08.926Z,1007.67
2023-03-05T03:45:08.924Z,1007.65
2023-03-05T03:46:09.024Z,1007.67
2023-03-05T03:47:08.903Z,1007.63
2023-03-05T03:48:08.888Z,1007.67
2023-03-05T03:49:08.879Z,1007.67
2023-03-05T03:50:08.870Z,1007.59
2023-03-05T03:51:08.901Z,1007.61
2023-03-05T03:52:08.843Z,1007.62
2023-03-05T03:53:08.851Z,1007.60
2023-03-05T03:54:08.831Z,1007.61
2023-03-05T03:55:08.814Z,1007.56
2023-03-05T03:56:08.837Z,1007.58
2023-03-05T03:57:08.798Z,1007.53
2023-03-05T03:58:08.780Z,1007.50
2023-03-05T03:59:08.775Z,1007.56
2023-03-05T04:00:08.767Z,1007.49
2023-03-05T04:01:08.768Z,1007.51
2023-03-05T04:02:08.767Z,1007.51
2023-03-05T04:03:08.728Z,1007.51
2023-03-05T04:04:08.861Z,1007.51
2023-03-05T04:05:08.726Z,1007.49
2023-03-05T04:06:08.716Z,1007.48
2023-03-05T04:07:08.701Z,1007.45
2023-03-05T04:08:08.673Z,1007.39
2023-03-05T04:09:08.683Z,1007.41
2023-03-05T04:10:08.661Z,1007.39
2023-03-05T04:11:08.656Z,1007.37
2023-03-05T04:12:08.635Z,1007.41
2023-03-05T04:13:08.658Z,1007.38
2023-03-05T04:14:08.611Z,1007.39
2023-03-05T04:15:08.606Z,1007.37
2023-03-05T04:16:08.645Z,1007.33
2023-03-05T04:17:08.589Z,1007.33
2023-03-05T04:18:08.568Z,1007.35
2023-03-05T04:19:08.560Z,1007.29
2023-03-05T04:20:08.553Z,1007.31
2023-03-05T04:21:08.585Z,1007.29
2023-03-05T04:22:08.525Z,1007.36
2023-03-05T04:23:08.541Z,1007.28
2023-03-05T04:24:08.501Z,1007.27
2023-03-05T04:25:08.578Z,1007.34
2023-03-05T04:26:08.506Z,1007.30
2023-03-05T04:27:08.470Z,1007.29
2023-03-05T04:28:08.460Z,1007.30
2023-03-05T04:29:08.457Z,1007.27
2023-03-05T04:30:08.437Z,1007.22
2023-03-05T04:31:08.450Z,1007.24
2023-03-05T04:32:08.461Z,1007.28
2023-03-05T04:33:08.420Z,1007.26
2023-03-05T04:34:08.392Z,1007.27
2023-03-05T04:35:08.384Z,1007.24
2023-03-05T04:36:08.392Z,1007.23
2023-03-05T04:37:08.368Z,1007.21
2023-03-05T04:38:08.350Z,1007.25
2023-03-05T04:39:08.365Z,1007.16
2023-03-05T04:40:08.347Z,1007.19
2023-03-05T04:41:08.338Z,1007.19
2023-03-05T04:42:08.306Z,1007.16
2023-03-05T04:43:08.294Z,1007.15
2023-03-05T04:44:08.279Z,1007.11
2023-03-05T04:45:08.277Z,1007.14
2023-03-05T04:46:08.329Z,1007.08
2023-03-05T04:47:08.249Z,1007.06
2023-03-05T04:48:08.245Z,1007.06
2023-03-05T04:49:08.231Z,1007.05
2023-03-05T04:50:08.241Z,1007.06
2023-03-05T04:51:08.257Z,1007.04
2023-03-05T04:52:08.200Z,1007.08
2023-03-05T04:53:08.190Z,1007.06
2023-03-05T04:54:08.173Z,1007.09
2023-03-05T04:55:08.187Z,1007.04
2023-03-05T04:56:08.177Z,1007.01
2023-03-05T04:57:08.146Z,1007.02
2023-03-05T04:58:08.135Z,1007.01
2023-03-05T04:59:08.124Z,1006.95
2023-03-05T05:00:08.117Z,1007.01
2023-03-05T05:01:08.124Z,1007.02
2023-03-05T05:02:08.105Z,1007.01
2023-03-05T05:03:08.138Z,1006.98
2023-03-05T05:04:08.072Z,1007.01
2023-03-05T05:05:08.065Z,1007.05
2023-03-05T05:06:08.076Z,1007.04
2023-03-05T05:07:08.052Z,1007.02
2023-03-05T05:08:08.039Z,1007.03
2023-03-05T05:09:08.016Z,1007.01
2023-03-05T05:10:08.018Z,1006.99
2023-03-05T05:11:08.045Z,1007.08
2023-03-05T05:12:07.994Z,1007.04
2023-03-05T05:13:07.979Z,1007.04
2023-03-05T05:14:07.973Z,1007.08
2023-03-05T05:15:07.957Z,1007.09
2023-03-05T05:16:08.084Z,1007.05
2023-03-05T05:17:07.936Z,1007.04
2023-03-05T05:18:07.928Z,1007.00
2023-03-05T05:19:08.009Z,1007.05
2023-03-05T05:20:07.910Z,1007.02
2023-03-05T05:21:07.909Z,1007.00
2023-03-05T05:22:07.880Z,1007.02
2023-03-05T05:23:07.870Z,1006.99
2023-03-05T05:24:07.879Z,1007.00
2023-03-05T05:25:07.879Z,1007.01
2023-03-05T05:26:07.850Z,1006.98
2023-03-05T05:27:07.849Z,1006.96
2023-03-05T05:28:07.818Z,1007.00
2023-03-05T05:29:07.818Z,1006.98
2023-03-05T05:30:07.831Z,1007.00
2023-03-05T05:31:07.879Z,1007.03
2023-03-05T05:32:07.845Z,1007.07
2023-03-05T05:33:07.769Z,1007.01
2023-03-05T05:34:07.758Z,1006.96
2023-03-05T05:35:07.752Z,1006.95
2023-03-05T05:36:07.759Z,1006.97
2023-03-05T05:37:07.725Z,1006.98
2023-03-05T05:38:07.719Z,1006.94
2023-03-05T05:39:07.701Z,1006.96
2023-03-05T05:40:07.691Z,1006.95
2023-03-05T05:41:07.726Z,1006.96
2023-03-05T05:42:07.676Z,1006.96
2023-03-05T05:43:07.692Z,1006.92
2023-03-05T05:44:07.651Z,1006.93
2023-03-05T05:45:07.730Z,1006.93
2023-03-05T05:46:07.791Z,1006.96
2023-03-05T05:47:07.616Z,1006.99
2023-03-05T05:48:07.614Z,1007.01
2023-03-05T05:49:07.597Z,1006.95
2023-03-05T05:50:07.584Z,1007.03
2023-03-05T05:51:07.594Z,1007.01
2023-03-05T05:52:07.563Z,1007.04
2023-03-05T05:53:07.558Z,1007.07
2023-03-05T05:54:07.543Z,1007.09
2023-03-05T05:55:07.532Z,1007.09
2023-03-05T05:56:07.537Z,1007.08
2023-03-05T05:57:07.519Z,1007.09
2023-03-05T05:58:07.498Z,1007.07
2023-03-05T05:59:07.514Z,1007.07
2023-03-05T06:00:07.475Z,1007.18
2023-03-05T06:01:07.481Z,1007.08
2023-03-05T06:02:07.512Z,1007.11
2023-03-05T06:03:07.465Z,1007.11
2023-03-05T06:04:07.434Z,1007.11
2023-03-05T06:05:07.424Z,1007.13
2023-03-05T06:06:07.431Z,1007.11
2023-03-05T06:07:07.412Z,1007.08
2023-03-05T06:08:07.393Z,1007.11
2023-03-05T06:09:07.386Z,1007.07
2023-03-05T06:10:07.400Z,1007.08
2023-03-05T06:11:07.371Z,1007.14
2023-03-05T06:12:07.368Z,1007.06
2023-03-05T06:13:07.340Z,1007.08
2023-03-05T06:14:07.333Z,1007.09
2023-03-05T06:15:07.338Z,1007.05
2023-03-05T06:16:07.367Z,1007.01
2023-03-05T06:17:07.298Z,1007.03
2023-03-05T06:18:07.284Z,1007.04
2023-03-05T06:19:07.285Z,1007.03
2023-03-05T06:20:07.259Z,1007.04
2023-03-05T06:21:07.271Z,1006.95
2023-03-05T06:22:07.245Z,1006.97
2023-03-05T06:23:07.235Z,1006.96
2023-03-05T06:24:07.224Z,1006.94
2023-03-05T06:25:07.211Z,1006.89
2023-03-05T06:26:07.229Z,1006.90
2023-03-05T06:27:07.190Z,1006.90
2023-03-05T06:28:07.179Z,1006.88
2023-03-05T06:29:07.173Z,1006.84
2023-03-05T06:30:07.161Z,1006.87
2023-03-05T06:31:07.231Z,1006.82
2023-03-05T06:32:07.173Z,1006.86
2023-03-05T06:33:07.212Z,1006.87
2023-03-05T06:34:07.115Z,1006.86
2023-03-05T06:35:07.111Z,1006.84
2023-03-05T06:36:07.116Z,1006.89
2023-03-05T06:37:07.087Z,1006.85
2023-03-05T06:38:07.074Z,1006.88
2023-03-05T06:39:07.066Z,1006.89
2023-03-05T06:40:07.050Z,1006.86
2023-03-05T06:41:07.066Z,1006.87
2023-03-05T06:42:07.034Z,1006.84
2023-03-05T06:43:07.021Z,1006.85
2023-03-05T06:44:07.015Z,1006.83
2023-03-05T06:45:07.006Z,1006.83
2023-03-05T06:46:07.049Z,1006.87
2023-03-05T06:47:07.009Z,1006.91
2023-03-05T06:48:06.963Z,1006.89
2023-03-05T06:49:06.980Z,1006.87
2023-03-05T06:50:06.954Z,1006.92
2023-03-05T06:51:06.931Z,1006.88
2023-03-05T06:52:06.939Z,1006.93
2023-03-05T06:53:06.916Z,1006.92
2023-03-05T06:54:06.898Z,1006.89
2023-03-05T06:55:06.891Z,1006.85
2023-03-05T06:56:06.877Z,1006.92
2023-03-05T06:57:06.880Z,1006.87
2023-03-05T06:58:06.876Z,1006.85
2023-03-05T06:59:06.855Z,1006.89
2023-03-05T07:00:06.833Z,1006.85
2023-03-05T07:01:06.843Z,1006.86
2023-03-05T07:02:06.889Z,1006.86
2023-03-05T07:03:06.834Z,1006.88
2023-03-05T07:04:06.813Z,1006.90
2023-03-05T07:05:06.790Z,1006.90
2023-03-05T07:06:06.767Z,1006.93
2023-03-05T07:07:06.776Z,1006.96
2023-03-05T07:08:06.749Z,1006.97
2023-03-05T07:09:06.746Z,1006.96
2023-03-05T07:10:06.725Z,1006.95
2023-03-05T07:11:06.717Z,1006.93
2023-03-05T07:12:06.732Z,1007.00
2023-03-05T07:13:14.577Z,1006.98
2023-03-05T07:14:06.684Z,1006.95
2023-03-05T07:15:06.674Z,1006.90
2023-03-05T07:16:06.684Z,1006.96
2023-03-05T07:17:06.670Z,1006.97
2023-03-05T07:18:06.660Z,1006.99
2023-03-05T07:19:06.654Z,1007.02
2023-03-05T07:20:06.623Z,1007.03
2023-03-05T07:21:06.609Z,1007.05
2023-03-05T07:22:06.611Z,1007.01
2023-03-05T07:23:06.597Z,1007.04
2023-03-05T07:24:06.592Z,1006.99
2023-03-05T07:25:06.567Z,1007.01
2023-03-05T07:26:06.556Z,1007.03
2023-03-05T07:27:06.556Z,1007.07
2023-03-05T07:28:06.534Z,1007.13
2023-03-05T07:29:06.524Z,1007.12
2023-03-05T07:30:06.512Z,1007.10
2023-03-05T07:31:06.605Z,1007.10
2023-03-05T07:32:06.540Z,1007.09
2023-03-05T07:33:06.496Z,1007.00
2023-03-05T07:34:06.485Z,1007.04
2023-03-05T07:35:06.484Z,1007.04
2023-03-05T07:36:06.445Z,1007.03
2023-03-05T07:37:06.472Z,1006.99
2023-03-05T07:38:06.466Z,1007.00
2023-03-05T07:39:06.481Z,1007.00
2023-03-05T07:40:06.403Z,1007.07
2023-03-05T07:41:06.394Z,1007.08
2023-03-05T07:42:06.423Z,1007.08
2023-03-05T07:43:06.376Z,1007.05
2023-03-05T07:44:06.363Z,1007.07
2023-03-05T07:45:06.358Z,1006.98
2023-03-05T07:46:06.403Z,1006.99
2023-03-05T07:47:06.347Z,1006.96
2023-03-05T07:48:06.321Z,1007.00
2023-03-05T07:49:06.311Z,1006.99
2023-03-05T07:50:06.301Z,1006.97
2023-03-05T07:51:06.307Z,1007.01
2023-03-05T07:52:06.306Z,1006.98
2023-03-05T07:53:06.265Z,1006.92
2023-03-05T07:54:06.256Z,1007.01
2023-03-05T07:55:06.243Z,1007.02
2023-03-05T07:56:06.233Z,1007.00
2023-03-05T07:57:06.237Z,1007.01
2023-03-05T07:58:06.212Z,1006.96
2023-03-05T07:59:06.220Z,1006.96
2023-03-05T08:00:06.189Z,1006.96
2023-03-05T08:01:06.178Z,1007.00
2023-03-05T08:02:06.229Z,1006.82
2023-03-05T08:03:06.180Z,1006.86
2023-03-05T08:04:06.239Z,1006.92
2023-03-05T08:05:06.143Z,1006.95
2023-03-05T08:06:06.125Z,1006.99
2023-03-05T08:07:06.144Z,1007.00
2023-03-05T08:08:06.109Z,1007.02
2023-03-05T08:09:06.089Z,1007.00
2023-03-05T08:10:06.142Z,1006.92
2023-03-05T08:11:06.072Z,1007.01
2023-03-05T08:12:06.073Z,1006.94
2023-03-05T08:13:06.049Z,1006.96
2023-03-05T08:14:06.043Z,1006.95
2023-03-05T08:15:06.063Z,1006.97
2023-03-05T08:16:06.081Z,1006.96
2023-03-05T08:17:06.154Z,1006.99
2023-03-05T08:18:06.002Z,1006.97
2023-03-05T08:19:05.984Z,1006.96
2023-03-05T08:20:05.975Z,1006.91
2023-03-05T08:21:05.964Z,1006.97
2023-03-05T08:22:05.971Z,1006.91
2023-03-05T08:23:05.977Z,1006.96
2023-03-05T08:24:05.952Z,1006.87
2023-03-05T08:25:05.921Z,1006.78
2023-03-05T08:26:05.910Z,1006.80
2023-03-05T08:27:05.895Z,1006.85
2023-03-05T08:28:05.908Z,1006.83
2023-03-05T08:29:05.874Z,1006.76
2023-03-05T08:30:05.875Z,1006.74
2023-03-05T08:31:05.910Z,1006.82
2023-03-05T08:32:05.853Z,1006.76
2023-03-05T08:33:05.849Z,1006.69
2023-03-05T08:34:05.827Z,1006.73
2023-03-05T08:35:05.809Z,1006.76
2023-03-05T08:36:05.800Z,1006.64
2023-03-05T08:37:05.786Z,1006.60
2023-03-05T08:38:05.827Z,1006.68
2023-03-05T08:39:05.782Z,1006.64
2023-03-05T08:40:05.754Z,1006.61
2023-03-05T08:41:05.748Z,1006.61
2023-03-05T08:42:08.610Z,1006.56
2023-03-05T08:43:05.773Z,1006.56
2023-03-05T08:44:05.708Z,1006.52
2023-03-05T08:45:05.695Z,1006.51
2023-03-05T08:46:05.685Z,1006.59
2023-03-05T08:47:05.686Z,1006.54
2023-03-05T08:48:05.670Z,1006.56
2023-03-05T08:49:05.656Z,1006.64
2023-03-05T08:50:05.664Z,1006.58
2023-03-05T08:51:05.657Z,1006.53
2023-03-05T08:52:05.647Z,1006.63
2023-03-05T08:53:05.610Z,1006.48
2023-03-05T08:54:05.602Z,1006.45
2023-03-05T08:55:05.626Z,1006.44
2023-03-05T08:56:05.579Z,1006.43
2023-03-05T08:57:05.578Z,1006.47
2023-03-05T08:58:05.560Z,1006.46
2023-03-05T08:59:05.553Z,1006.40
2023-03-05T09:00:05.536Z,1006.44
2023-03-05T09:01:05.539Z,1006.35
2023-03-05T09:02:05.621Z,1006.45
2023-03-05T09:03:05.522Z,1006.49
2023-03-05T09:04:05.493Z,1006.44
2023-03-05T09:05:05.480Z,1006.52
2023-03-05T09:06:05.502Z,1006.47
2023-03-05T09:07:05.469Z,1006.36
2023-03-05T09:08:05.454Z,1006.37
2023-03-05T09:09:05.444Z,1006.43
2023-03-05T09:10:05.425Z,1006.38
2023-03-05T09:11:05.445Z,1006.33
2023-03-05T09:12:05.418Z,1006.41
2023-03-05T09:13:05.413Z,1006.41
2023-03-05T09:14:05.382Z,1006.36
2023-03-05T09:15:05.373Z,1006.29
2023-03-05T09:16:05.419Z,1006.28
2023-03-05T09:17:05.398Z,1006.27
2023-03-05T09:18:05.348Z,1006.37
2023-03-05T09:19:05.326Z,1006.36
2023-03-05T09:20:05.315Z,1006.33
2023-03-05T09:21:05.348Z,1006.24
2023-03-05T09:22:05.317Z,1006.33
2023-03-05T09:23:05.283Z,1006.34
2023-03-05T09:24:05.274Z,1006.24
2023-03-05T09:25:05.276Z,1006.33
2023-03-05T09:26:05.250Z,1006.41
2023-03-05T09:27:05.282Z,1006.33
2023-03-05T09:28:05.232Z,1006.32
2023-03-05T09:29:05.215Z,1006.34
2023-03-05T09:30:05.210Z,1006.39
2023-03-05T09:31:05.204Z,1006.38
2023-03-05T09:32:05.329Z,1006.40
2023-03-05T09:33:05.176Z,1006.34
2023-03-05T09:34:05.163Z,1006.32
2023-03-05T09:35:05.151Z,1006.28
2023-03-05T09:36:05.140Z,1006.31
2023-03-05T09:37:05.157Z,1006.33
2023-03-05T09:38:05.151Z,1006.25
2023-03-05T09:39:05.125Z,1006.36
2023-03-05T09:40:05.137Z,1006.38
2023-03-05T09:41:05.107Z,1006.35
2023-03-05T09:42:05.076Z,1006.37
2023-03-05T09:43:05.098Z,1006.25
2023-03-05T09:44:05.059Z,1006.36
2023-03-05T09:45:05.043Z,1006.38
2023-03-05T09:46:05.059Z,1006.28
2023-03-05T09:47:05.016Z,1006.31
2023-03-05T09:48:05.028Z,1006.30
2023-03-05T09:49:04.996Z,1006.28
2023-03-05T09:50:04.990Z,1006.33
2023-03-05T09:51:04.983Z,1006.31
2023-03-05T09:52:05.040Z,1006.28
2023-03-05T09:53:04.967Z,1006.26
2023-03-05T09:54:04.944Z,1006.26
2023-03-05T09:55:04.932Z,1006.22
2023-03-05T09:56:04.928Z,1006.22
2023-03-05T09:57:04.912Z,1006.22
2023-03-05T09:58:04.920Z,1006.19
2023-03-05T09:59:04.907Z,1006.17
2023-03-05T10:00:04.882Z,1006.19
2023-03-05T10:01:04.872Z,1006.21
2023-03-05T10:02:04.857Z,1006.20
2023-03-05T10:03:04.881Z,1006.13
2023-03-05T10:04:04.897Z,1006.13
2023-03-05T10:05:04.823Z,1006.18
2023-03-05T10:06:04.819Z,1006.16
2023-03-05T10:07:04.802Z,1006.19
2023-03-05T10:08:04.807Z,1006.17
2023-03-05T10:09:04.792Z,1006.16
2023-03-05T10:10:04.773Z,1006.10
2023-03-05T10:11:04.759Z,1006.11
2023-03-05T10:12:04.753Z,1006.11
2023-03-05T10:13:04.752Z,1006.13
2023-03-05T10:14:04.801Z,1006.05
2023-03-05T10:15:04.742Z,1006.09
2023-03-05T10:16:04.711Z,1005.94
2023-03-05T10:17:04.698Z,1005.99
2023-03-05T10:18:04.684Z,1005.99
2023-03-05T10:19:04.699Z,1006.02
2023-03-05T10:20:04.664Z,1006.04
2023-03-05T10:21:04.650Z,1006.02
2023-03-05T10:22:04.642Z,1006.03
2023-03-05T10:23:04.643Z,1006.04
2023-03-05T10:24:04.621Z,1006.04
2023-03-05T10:25:04.606Z,1006.02
2023-03-05T10:26:04.599Z,1005.93
2023-03-05T10:27:04.618Z,1005.96
2023-03-05T10:28:04.589Z,1006.02
2023-03-05T10:29:04.571Z,1005.97
2023-03-05T10:30:04.554Z,1006.00
2023-03-05T10:31:04.559Z,1005.91
2023-03-05T10:32:04.612Z,1005.94
2023-03-05T10:33:04.533Z,1005.93
2023-03-05T10:34:04.532Z,1005.91
2023-03-05T10:35:04.501Z,1005.94
2023-03-05T10:36:04.488Z,1005.91
2023-03-05T10:37:04.477Z,1005.97
2023-03-05T10:38:04.482Z,1005.97
2023-03-05T10:39:04.695Z,1006.00
2023-03-05T10:40:04.453Z,1005.94
2023-03-05T10:41:04.445Z,1005.99
2023-03-05T10:42:04.425Z,1005.90
2023-03-05T10:43:04.422Z,1005.94
2023-03-05T10:44:04.428Z,1005.94
2023-03-05T10:45:04.394Z,1005.87
2023-03-05T10:46:04.459Z,1005.87
2023-03-05T10:47:04.387Z,1005.89
2023-03-05T10:48:04.363Z,1005.94
2023-03-05T10:49:04.366Z,1005.88
2023-03-05T10:50:04.339Z,1005.86
2023-03-05T10:51:04.329Z,1005.74
2023-03-05T10:52:04.333Z,1005.78
2023-03-05T10:53:04.319Z,1005.79
2023-03-05T10:54:04.297Z,1005.80
2023-03-05T10:55:04.304Z,1005.75
2023-03-05T10:56:04.282Z,1005.77
2023-03-05T10:57:04.264Z,1005.77
2023-03-05T10:58:04.302Z,1005.74
2023-03-05T10:59:04.246Z,1005.79
2023-03-05T11:00:04.244Z,1005.69
2023-03-05T11:01:04.445Z,1005.75
2023-03-05T11:02:04.258Z,1005.79
2023-03-05T11:03:04.302Z,1005.79
2023-03-05T11:04:04.190Z,1005.80
2023-03-05T11:05:05.244Z,1005.78
2023-03-05T11:06:04.162Z,1005.85
2023-03-05T11:07:04.162Z,1005.80
2023-03-05T11:08:04.168Z,1005.85
2023-03-05T11:09:04.131Z,1005.81
2023-03-05T11:10:04.114Z,1005.81
2023-03-05T11:11:04.232Z,1005.83
2023-03-05T11:12:04.096Z,1005.80
2023-03-05T11:13:04.116Z,1005.81
2023-03-05T11:14:04.082Z,1005.81
2023-03-05T11:15:04.116Z,1005.79
2023-03-05T11:16:04.106Z,1005.80
2023-03-05T11:17:04.044Z,1005.76
2023-03-05T11:18:04.053Z,1005.72
2023-03-05T11:19:04.074Z,1005.70
2023-03-05T11:20:04.054Z,1005.76
2023-03-05T11:21:04.023Z,1005.74
2023-03-05T11:22:03.997Z,1005.70
2023-03-05T11:23:03.996Z,1005.69
2023-03-05T11:24:03.983Z,1005.67
2023-03-05T11:25:03.971Z,1005.66
2023-03-05T11:26:03.944Z,1005.64
2023-03-05T11:27:03.935Z,1005.62
2023-03-05T11:28:03.947Z,1005.60
2023-03-05T11:29:03.911Z,1005.57
2023-03-05T11:30:03.918Z,1005.63
2023-03-05T11:31:04.023Z,1005.61
2023-03-05T11:32:03.899Z,1005.63
2023-03-05T11:33:03.879Z,1005.64
2023-03-05T11:34:03.860Z,1005.66
2023-03-05T11:35:03.882Z,1005.62
2023-03-05T11:36:03.838Z,1005.66
2023-03-05T11:37:03.908Z,1005.62
2023-03-05T11:38:03.830Z,1005.56
2023-03-05T11:39:03.802Z,1005.57
2023-03-05T11:40:03.793Z,1005.46
2023-03-05T11:41:03.777Z,1005.59
2023-03-05T11:42:03.796Z,1005.55
2023-03-05T11:43:03.787Z,1005.54
2023-03-05T11:44:03.758Z,1005.52
2023-03-05T11:45:03.748Z,1005.52
2023-03-05T11:46:03.817Z,1005.49
2023-03-05T11:47:03.714Z,1005.51
2023-03-05T11:48:03.722Z,1005.52
2023-03-05T11:49:03.696Z,1005.42
2023-03-05T11:50:03.684Z,1005.49
2023-03-05T11:51:03.691Z,1005.41
2023-03-05T11:52:03.665Z,1005.44
2023-03-05T11:53:03.665Z,1005.43
2023-03-05T11:54:03.642Z,1005.42
2023-03-05T11:55:03.640Z,1005.35
2023-03-05T11:56:03.641Z,1005.38
2023-03-05T11:57:03.608Z,1005.43
2023-03-05T11:58:03.612Z,1005.45
2023-03-05T11:59:03.592Z,1005.42
2023-03-05T12:00:03.582Z,1005.45
2023-03-05T12:01:03.614Z,1005.42
2023-03-05T12:02:03.573Z,1005.38
2023-03-05T12:03:03.655Z,1005.43
2023-03-05T12:04:03.559Z,1005.47
2023-03-05T12:05:03.527Z,1005.35